createdAt,value
2022-11-26T00:01:22.348Z,2.38
2022-11-26T00:03:49.749Z,2.22
2022-11-26T00:06:33.767Z,2.40
2022-11-26T00:09:01.367Z,3.22
2022-11-26T00:11:28.524Z,2.17
2022-11-26T00:13:55.269Z,2.53
2022-11-26T00:16:21.971Z,2.83
2022-11-26T00:18:48.811Z,2.60
2022-11-26T00:21:20.486Z,3.28
2022-11-26T00:23:47.543Z,2.97
2022-11-26T00:26:19.513Z,3.90
2022-11-26T00:28:52.616Z,2.17
2022-11-26T00:31:19.534Z,2.80
2022-11-26T00:33:46.900Z,2.90
2022-11-26T00:36:33.954Z,2.70
2022-11-26T00:39:09.129Z,3.80
2022-11-26T00:41:40.866Z,3.45
2022-11-26T00:44:33.702Z,2.55
2022-11-26T00:47:06.292Z,2.58
2022-11-26T00:49:33.035Z,2.20
2022-11-26T00:54:50.933Z,2.30
2022-11-26T00:57:17.663Z,2.92
2022-11-26T00:59:46.339Z,2.28
2022-11-26T01:02:16.588Z,2.67
2022-11-26T01:04:43.419Z,2.97
2022-11-26T01:07:11.079Z,3.75
2022-11-26T01:09:38.940Z,2.75
2022-11-26T01:12:12.674Z,2.30
2022-11-26T01:14:39.718Z,2.08
2022-11-26T01:17:11.388Z,2.63
2022-11-26T01:19:38.166Z,3.28
2022-11-26T01:22:04.827Z,3.83
2022-11-26T01:24:31.527Z,2.55
2022-11-26T01:26:58.156Z,2.33
2022-11-26T01:29:24.914Z,2.70
2022-11-26T01:31:51.589Z,2.83
2022-11-26T01:34:18.327Z,3.63
2022-11-26T01:36:45.232Z,3.38
2022-11-26T01:39:21.983Z,2.90
2022-11-26T01:42:07.104Z,3.53
2022-11-26T01:44:36.341Z,3.03
2022-11-26T01:47:25.302Z,3.10
2022-11-26T01:50:31.744Z,3.00
2022-11-26T01:52:58.390Z,3.55
2022-11-26T01:55:25.249Z,3.15
2022-11-26T01:57:52.065Z,2.40
2022-11-26T02:00:19.020Z,3.85
2022-11-26T02:02:45.904Z,4.15
2022-11-26T02:05:21.704Z,2.75
2022-11-26T02:07:48.756Z,3.50
2022-11-26T02:10:15.595Z,2.58
2022-11-26T02:12:43.204Z,3.92
2022-11-26T02:15:11.559Z,2.90
2022-11-26T02:18:07.115Z,2.78
2022-11-26T02:20:33.832Z,2.58
2022-11-26T02:23:25.297Z,3.03
2022-11-26T02:28:55.766Z,3.28
2022-11-26T02:31:37.622Z,3.55
2022-11-26T02:34:13.379Z,3.88
2022-11-26T02:36:55.407Z,3.70
2022-11-26T02:39:25.410Z,3.20
2022-11-26T02:41:54.951Z,4.80
2022-11-26T02:44:24.896Z,3.20
2022-11-26T02:46:57.255Z,3.83
2022-11-26T02:49:24.326Z,2.88
2022-11-26T02:51:58.874Z,3.70
2022-11-26T02:54:27.814Z,3.20
2022-11-26T02:56:55.025Z,2.92
2022-11-26T02:59:22.432Z,3.45
2022-11-26T03:01:59.145Z,2.83
2022-11-26T03:04:33.336Z,3.38
2022-11-26T03:07:03.470Z,2.80
2022-11-26T03:10:00.001Z,4.25
2022-11-26T03:12:28.016Z,3.40
2022-11-26T03:14:55.271Z,3.70
2022-11-26T03:17:22.384Z,3.78
2022-11-26T03:19:49.176Z,3.38
2022-11-26T03:22:16.307Z,3.53
2022-11-26T03:24:43.457Z,2.70
2022-11-26T03:27:10.274Z,4.15
2022-11-26T03:29:37.002Z,4.60
2022-11-26T03:32:03.948Z,3.50
2022-11-26T03:34:30.733Z,3.67
2022-11-26T03:36:57.436Z,2.72
2022-11-26T03:39:24.225Z,2.75
2022-11-26T03:41:50.925Z,2.67
2022-11-26T03:44:17.682Z,3.47
2022-11-26T03:46:44.553Z,3.90
2022-11-26T03:49:11.371Z,3.30
2022-11-26T03:51:38.071Z,3.67
2022-11-26T03:54:04.775Z,4.78
2022-11-26T03:56:31.482Z,3.53
2022-11-26T03:58:58.202Z,2.92
2022-11-26T04:01:25.623Z,3.60
2022-11-26T04:03:52.596Z,2.97
2022-11-26T04:06:19.274Z,2.70
2022-11-26T04:08:46.077Z,3.70
2022-11-26T04:11:13.138Z,3.67
2022-11-26T04:13:39.937Z,3.28
2022-11-26T04:16:06.915Z,3.40
2022-11-26T04:18:33.899Z,3.38
2022-11-26T04:21:00.660Z,2.95
2022-11-26T04:23:27.832Z,3.05
2022-11-26T04:25:54.551Z,4.68
2022-11-26T04:28:21.253Z,5.68
2022-11-26T04:30:48.031Z,4.18
2022-11-26T04:33:14.781Z,4.32
2022-11-26T04:35:42.654Z,5.32
2022-11-26T04:38:09.465Z,4.57
2022-11-26T04:40:36.358Z,4.13
2022-11-26T04:43:03.087Z,4.57
2022-11-26T04:45:29.859Z,3.70
2022-11-26T04:47:56.609Z,3.83
2022-11-26T04:50:23.597Z,4.38
2022-11-26T04:52:50.885Z,3.92
2022-11-26T04:55:18.572Z,3.60
2022-11-26T04:57:48.743Z,4.93
2022-11-26T05:00:17.731Z,3.33
2022-11-26T05:02:45.193Z,2.78
2022-11-26T05:05:12.703Z,3.20
2022-11-26T05:07:39.488Z,3.03
2022-11-26T05:10:08.626Z,2.20
2022-11-26T05:12:36.058Z,2.28
2022-11-26T05:15:03.067Z,3.33
2022-11-26T05:17:29.805Z,4.30
2022-11-26T05:19:56.533Z,2.72
2022-11-26T05:22:23.541Z,2.28
2022-11-26T05:24:50.274Z,3.42
2022-11-26T05:27:16.990Z,3.28
2022-11-26T05:29:45.287Z,2.83
2022-11-26T05:32:12.150Z,2.85
2022-11-26T05:34:39.150Z,3.50
2022-11-26T05:37:06.052Z,5.07
2022-11-26T05:39:32.782Z,2.45
2022-11-26T05:42:00.353Z,3.25
2022-11-26T05:44:29.291Z,2.75
2022-11-26T05:46:55.992Z,2.97
2022-11-26T05:49:22.639Z,2.63
2022-11-26T05:51:49.407Z,3.03
2022-11-26T05:54:16.580Z,3.70
2022-11-26T05:56:44.061Z,3.00
2022-11-26T05:59:11.640Z,3.03
2022-11-26T06:01:38.485Z,2.80
2022-11-26T06:04:05.540Z,2.92
2022-11-26T06:06:32.231Z,2.72
2022-11-26T06:08:59.299Z,2.45
2022-11-26T06:11:25.998Z,2.95
2022-11-26T06:13:52.719Z,2.85
2022-11-26T06:16:19.461Z,2.80
2022-11-26T06:18:46.256Z,2.45
2022-11-26T06:21:12.976Z,3.60
2022-11-26T06:23:42.465Z,2.92
2022-11-26T06:26:14.307Z,2.25
2022-11-26T06:28:41.008Z,3.03
2022-11-26T06:31:10.111Z,2.30
2022-11-26T06:33:37.600Z,2.33
2022-11-26T06:36:05.184Z,3.17
2022-11-26T06:38:32.483Z,2.33
2022-11-26T06:41:01.093Z,2.53
2022-11-26T06:43:28.416Z,2.08
2022-11-26T06:45:55.990Z,2.38
2022-11-26T06:48:24.693Z,2.25
2022-11-26T06:50:52.690Z,3.92
2022-11-26T06:53:19.641Z,1.77
2022-11-26T06:55:46.401Z,2.90
2022-11-26T06:58:14.799Z,2.15
2022-11-26T07:00:42.458Z,3.30
2022-11-26T07:03:09.693Z,2.30
2022-11-26T07:05:37.216Z,2.55
2022-11-26T07:08:04.209Z,3.08
2022-11-26T07:10:32.036Z,3.08
2022-11-26T07:12:58.822Z,5.03
2022-11-26T07:15:25.481Z,2.35
2022-11-26T07:17:52.230Z,2.97
2022-11-26T07:20:19.336Z,2.85
2022-11-26T07:22:46.314Z,2.08
2022-11-26T07:25:13.191Z,2.75
2022-11-26T07:27:40.056Z,2.63
2022-11-26T07:30:07.400Z,2.67
2022-11-26T07:32:35.885Z,2.50
2022-11-26T07:35:04.438Z,3.38
2022-11-26T07:37:33.174Z,2.83
2022-11-26T07:39:59.818Z,2.88
2022-11-26T07:42:29.557Z,2.85
2022-11-26T07:44:56.230Z,3.17
2022-11-26T07:47:22.992Z,4.50
2022-11-26T07:49:49.682Z,2.45
2022-11-26T07:52:16.460Z,3.55
2022-11-26T07:54:43.344Z,3.72
2022-11-26T07:57:10.890Z,4.18
2022-11-26T07:59:37.500Z,4.43
2022-11-26T08:02:04.341Z,4.25
2022-11-26T08:04:31.015Z,4.43
2022-11-26T08:06:57.710Z,5.50
2022-11-26T08:09:24.333Z,5.18
2022-11-26T08:11:51.023Z,4.63
2022-11-26T08:14:17.724Z,4.93
2022-11-26T08:16:44.670Z,4.25
2022-11-26T08:19:13.771Z,4.85
2022-11-26T08:21:41.231Z,6.35
2022-11-26T08:24:16.574Z,4.70
2022-11-26T08:26:44.701Z,4.38
2022-11-26T08:29:12.433Z,5.07
2022-11-26T08:31:45.296Z,4.60
2022-11-26T08:34:15.184Z,5.70
2022-11-26T08:36:42.747Z,4.75
2022-11-26T08:39:13.581Z,4.43
2022-11-26T08:41:40.823Z,5.75
2022-11-26T08:44:08.482Z,4.93
2022-11-26T08:46:40.654Z,4.43
2022-11-26T08:49:12.267Z,4.22
2022-11-26T08:51:39.346Z,5.65
2022-11-26T08:54:06.272Z,5.05
2022-11-26T08:56:34.190Z,4.75
2022-11-26T08:59:01.160Z,4.82
2022-11-26T09:01:32.536Z,4.97
2022-11-26T09:04:02.806Z,3.58
2022-11-26T09:06:31.301Z,4.65
2022-11-26T09:09:13.339Z,4.07
2022-11-26T09:11:54.086Z,5.05
2022-11-26T09:14:24.965Z,5.50
2022-11-26T09:16:53.088Z,4.63
2022-11-26T09:19:19.932Z,4.45
2022-11-26T09:21:47.329Z,5.63
2022-11-26T09:24:14.910Z,5.38
2022-11-26T09:26:41.637Z,5.32
2022-11-26T09:29:08.429Z,4.55
2022-11-26T09:31:35.305Z,4.65
2022-11-26T09:34:02.774Z,6.80
2022-11-26T09:36:29.855Z,5.00
2022-11-26T09:38:57.587Z,4.60
2022-11-26T09:41:42.535Z,4.28
2022-11-26T09:44:47.948Z,4.00
2022-11-26T09:47:23.115Z,5.43
2022-11-26T09:50:19.312Z,3.22
2022-11-26T09:53:20.016Z,4.18
2022-11-26T09:55:53.345Z,5.83
2022-11-26T09:58:27.756Z,5.00
2022-11-26T10:01:00.205Z,4.03
2022-11-26T10:03:33.550Z,4.47
2022-11-26T10:06:26.819Z,5.03
2022-11-26T10:09:10.026Z,5.57
2022-11-26T10:11:58.082Z,3.88
2022-11-26T10:14:48.864Z,4.50
2022-11-26T10:17:37.385Z,3.83
2022-11-26T10:20:07.011Z,4.15
2022-11-26T10:22:44.877Z,4.60
2022-11-26T10:25:18.474Z,6.38
2022-11-26T10:27:45.839Z,5.22
2022-11-26T10:30:21.307Z,3.90
2022-11-26T10:32:51.227Z,5.38
2022-11-26T10:35:27.688Z,3.53
2022-11-26T10:37:58.364Z,5.40
2022-11-26T10:40:27.834Z,4.75
2022-11-26T10:43:06.437Z,3.75
2022-11-26T10:45:36.640Z,4.20
2022-11-26T10:48:28.799Z,4.45
2022-11-26T10:51:02.788Z,4.32
2022-11-26T10:53:34.369Z,3.45
2022-11-26T10:56:05.972Z,3.30
2022-11-26T10:58:43.243Z,4.82
2022-11-26T11:01:14.445Z,4.45
2022-11-26T11:04:30.735Z,5.00
2022-11-26T11:06:58.104Z,4.55
2022-11-26T11:09:34.782Z,4.50
2022-11-26T11:12:13.339Z,4.10
2022-11-26T11:14:43.454Z,4.15
2022-11-26T11:17:33.778Z,3.45
2022-11-26T11:20:25.147Z,3.90
2022-11-26T11:23:34.794Z,3.58
2022-11-26T11:26:25.372Z,5.50
2022-11-26T11:28:55.003Z,5.18
2022-11-26T11:31:24.370Z,4.63
2022-11-26T11:34:03.892Z,4.53
2022-11-26T11:36:30.612Z,4.20
2022-11-26T11:39:02.577Z,4.72
2022-11-26T11:41:49.264Z,5.00
2022-11-26T11:44:20.764Z,4.10
2022-11-26T11:47:05.839Z,4.40
2022-11-26T11:49:32.508Z,3.60
2022-11-26T11:52:08.407Z,3.70
2022-11-26T11:55:08.108Z,4.18
2022-11-26T11:57:47.067Z,4.10
2022-11-26T12:00:20.236Z,4.38
2022-11-26T12:03:10.399Z,4.25
2022-11-26T12:05:42.193Z,4.70
2022-11-26T12:08:20.877Z,4.25
2022-11-26T12:11:06.326Z,4.90
2022-11-26T12:13:45.985Z,5.20
2022-11-26T12:16:14.843Z,4.60
2022-11-26T12:18:41.708Z,4.10
2022-11-26T12:21:10.379Z,5.05
2022-11-26T12:23:58.269Z,4.30
2022-11-26T12:26:33.486Z,4.30
2022-11-26T12:29:21.538Z,4.43
2022-11-26T12:32:06.250Z,4.80
2022-11-26T12:34:44.101Z,4.60
2022-11-26T12:37:21.398Z,4.65
2022-11-26T12:40:01.522Z,4.72
2022-11-26T12:42:31.187Z,3.85
2022-11-26T12:45:16.223Z,4.25
2022-11-26T12:47:53.511Z,4.38
2022-11-26T12:50:35.145Z,5.07
2022-11-26T12:53:20.100Z,5.15
2022-11-26T12:56:01.001Z,6.35
2022-11-26T12:58:39.248Z,5.50
2022-11-26T13:01:06.004Z,4.68
2022-11-26T13:03:33.703Z,5.78
2022-11-26T13:06:34.124Z,6.13
2022-11-26T13:09:11.406Z,5.70
2022-11-26T13:11:49.989Z,5.20
2022-11-26T13:14:38.679Z,7.00
2022-11-26T13:17:13.039Z,5.72
2022-11-26T13:19:53.035Z,4.30
2022-11-26T13:22:57.165Z,6.28
2022-11-26T13:25:55.156Z,5.70
2022-11-26T13:28:36.158Z,5.22
2022-11-26T13:31:40.253Z,6.35
2022-11-26T13:34:27.246Z,5.15
2022-11-26T13:37:32.073Z,5.95
2022-11-26T13:40:16.810Z,5.50
2022-11-26T13:43:01.530Z,5.53
2022-11-26T13:45:53.858Z,4.82
2022-11-26T13:48:58.630Z,5.65
2022-11-26T13:51:36.397Z,5.22
2022-11-26T13:54:19.262Z,4.22
2022-11-26T13:56:47.175Z,6.32
2022-11-26T13:59:28.590Z,5.35
2022-11-26T14:01:56.402Z,4.38
2022-11-26T14:04:23.176Z,6.15
2022-11-26T14:07:04.872Z,4.82
2022-11-26T14:09:46.482Z,5.30
2022-11-26T14:12:14.349Z,4.75
2022-11-26T14:14:42.684Z,4.85
2022-11-26T14:17:18.601Z,6.50
2022-11-26T14:19:48.663Z,5.28
2022-11-26T14:22:21.575Z,4.50
2022-11-26T14:24:51.078Z,6.15
2022-11-26T14:27:19.601Z,5.93
2022-11-26T14:29:47.949Z,4.93
2022-11-26T14:32:20.787Z,5.75
2022-11-26T14:34:55.799Z,4.93
2022-11-26T14:37:28.347Z,5.90
2022-11-26T14:40:21.549Z,4.55
2022-11-26T14:43:05.493Z,5.63
2022-11-26T14:45:32.425Z,5.13
2022-11-26T14:47:59.189Z,5.15
2022-11-26T14:50:26.794Z,6.95
2022-11-26T14:52:59.950Z,4.90
2022-11-26T14:55:31.317Z,5.40
2022-11-26T15:00:36.571Z,5.50
2022-11-26T15:03:04.102Z,5.82
2022-11-26T15:05:33.275Z,5.40
2022-11-26T15:08:06.505Z,6.03
2022-11-26T15:10:47.639Z,10.45
2022-11-26T15:13:25.575Z,17.83
2022-11-26T15:15:53.947Z,6.05
2022-11-26T15:18:27.429Z,7.97
2022-11-26T15:20:55.419Z,5.85
2022-11-26T15:23:32.066Z,6.60
2022-11-26T15:26:00.320Z,6.00
2022-11-26T15:28:27.965Z,6.70
2022-11-26T15:31:00.827Z,6.45
2022-11-26T15:33:30.636Z,13.73
2022-11-26T15:35:57.752Z,6.32
2022-11-26T15:38:30.136Z,6.07
2022-11-26T15:41:02.583Z,6.97
2022-11-26T15:43:31.361Z,6.70
2022-11-26T15:46:19.791Z,6.13
2022-11-26T15:48:53.183Z,6.82
2022-11-26T15:51:42.145Z,7.85
2022-11-26T15:54:24.470Z,6.65
2022-11-26T15:57:06.502Z,6.82
2022-11-26T15:59:46.845Z,8.18
2022-11-26T16:02:19.321Z,14.90
2022-11-26T16:04:54.559Z,6.90
2022-11-26T16:07:27.664Z,6.28
2022-11-26T16:10:17.909Z,8.57
2022-11-26T16:13:05.567Z,7.45
2022-11-26T16:15:32.376Z,6.40
2022-11-26T16:17:59.092Z,7.50
2022-11-26T16:20:27.906Z,7.20
2022-11-26T16:22:57.942Z,8.07
2022-11-26T16:25:34.475Z,8.48
2022-11-26T16:28:21.412Z,7.88
2022-11-26T16:30:48.137Z,6.78
2022-11-26T16:33:15.005Z,7.32
2022-11-26T16:35:46.516Z,6.32
2022-11-26T16:38:22.528Z,7.95
2022-11-26T16:40:50.005Z,6.65
2022-11-26T16:43:16.771Z,6.68
2022-11-26T16:45:43.930Z,6.45
2022-11-26T16:48:20.216Z,7.78
2022-11-26T16:50:47.006Z,7.88
2022-11-26T16:53:13.788Z,7.57
2022-11-26T16:55:40.511Z,6.60
2022-11-26T16:58:07.479Z,6.60
2022-11-26T17:00:35.822Z,9.27
2022-11-26T17:03:02.559Z,8.43
2022-11-26T17:05:29.625Z,6.70
2022-11-26T17:07:59.937Z,7.68
2022-11-26T17:10:29.348Z,7.82
2022-11-26T17:12:57.192Z,7.53
2022-11-26T17:15:24.373Z,7.72
2022-11-26T17:17:54.318Z,6.20
2022-11-26T17:20:25.591Z,6.18
2022-11-26T17:25:19.357Z,7.75
2022-11-26T17:27:46.483Z,5.78
2022-11-26T17:30:19.843Z,6.93
2022-11-26T17:32:46.709Z,6.60
2022-11-26T17:35:13.391Z,7.93
2022-11-26T17:37:40.595Z,10.07
2022-11-26T17:40:15.453Z,7.40
2022-11-26T17:42:42.121Z,7.32
2022-11-26T17:45:09.469Z,5.90
2022-11-26T17:47:36.175Z,5.80
2022-11-26T17:50:03.215Z,6.93
2022-11-26T17:52:29.978Z,6.78
2022-11-26T17:54:56.742Z,8.27
2022-11-26T17:57:24.473Z,7.30
2022-11-26T17:59:51.564Z,7.22
2022-11-26T18:02:18.298Z,8.32
2022-11-26T18:04:44.965Z,6.30
2022-11-26T18:07:17.791Z,10.27
2022-11-26T18:09:45.575Z,9.02
2022-11-26T18:12:24.388Z,7.75
2022-11-26T18:14:53.583Z,7.00
2022-11-26T18:17:20.522Z,6.10
2022-11-26T18:19:47.616Z,6.13
2022-11-26T18:22:16.677Z,7.90
2022-11-26T18:24:50.028Z,7.78
2022-11-26T18:27:25.457Z,8.13
2022-11-26T18:29:52.299Z,6.80
2022-11-26T18:32:19.285Z,6.78
2022-11-26T18:34:48.289Z,7.30
2022-11-26T18:37:15.013Z,8.23
2022-11-26T18:39:41.948Z,6.57
2022-11-26T18:42:35.924Z,7.63
2022-11-26T18:44:55.655Z,7.78
2022-11-26T18:47:22.417Z,7.65
2022-11-26T18:49:49.540Z,7.93
2022-11-26T18:52:16.475Z,7.45
2022-11-26T18:54:43.180Z,8.25
2022-11-26T18:57:09.799Z,6.35
2022-11-26T18:59:36.639Z,6.65
2022-11-26T19:02:03.827Z,8.05
2022-11-26T19:04:30.626Z,6.03
2022-11-26T19:06:57.303Z,9.32
2022-11-26T19:09:24.099Z,7.20
2022-11-26T19:11:58.219Z,7.30
2022-11-26T19:14:25.361Z,6.30
2022-11-26T19:16:52.177Z,6.43
2022-11-26T19:19:19.476Z,6.60
2022-11-26T19:21:46.230Z,5.68
2022-11-26T19:24:14.181Z,6.13
2022-11-26T19:26:43.949Z,6.53
2022-11-26T19:29:12.777Z,8.23
2022-11-26T19:31:39.865Z,7.70
2022-11-26T19:34:12.533Z,8.82
2022-11-26T19:36:39.308Z,7.22
2022-11-26T19:39:06.964Z,7.25
2022-11-26T19:41:33.871Z,8.05
2022-11-26T19:44:01.349Z,7.00
2022-11-26T19:46:28.347Z,8.02
2022-11-26T19:48:55.888Z,7.70
2022-11-26T19:51:24.183Z,8.32
2022-11-26T19:53:53.627Z,7.88
2022-11-26T19:56:24.048Z,6.93
2022-11-26T19:58:53.860Z,6.80
2022-11-26T20:01:21.877Z,8.85
2022-11-26T20:03:49.664Z,6.30
2022-11-26T20:06:20.232Z,6.97
2022-11-26T20:08:48.063Z,9.05
2022-11-26T20:11:16.684Z,8.30
2022-11-26T20:13:44.748Z,7.18
2022-11-26T20:16:31.989Z,7.40
2022-11-26T20:18:59.597Z,11.25
2022-11-26T20:21:28.602Z,7.30
2022-11-26T20:23:58.302Z,8.63
2022-11-26T20:26:30.666Z,7.88
2022-11-26T20:29:01.714Z,8.10
2022-11-26T20:31:28.836Z,8.15
2022-11-26T20:33:55.962Z,7.43
2022-11-26T20:36:23.630Z,8.07
2022-11-26T20:38:55.612Z,7.43
2022-11-26T20:41:23.412Z,7.65
2022-11-26T20:43:56.617Z,8.80
2022-11-26T20:46:25.888Z,9.25
2022-11-26T20:48:52.997Z,9.18
2022-11-26T20:51:22.024Z,6.85
2022-11-26T20:53:50.695Z,8.43
2022-11-26T20:56:20.197Z,10.52
2022-11-26T20:58:47.378Z,10.05
2022-11-26T21:01:20.894Z,10.98
2022-11-26T21:03:48.424Z,11.70
2022-11-26T21:06:16.712Z,11.13
2022-11-26T21:08:43.885Z,8.20
2022-11-26T21:11:11.680Z,8.85
2022-11-26T21:13:39.690Z,8.77
2022-11-26T21:16:09.868Z,8.63
2022-11-26T21:18:36.598Z,8.90
2022-11-26T21:21:11.559Z,8.50
2022-11-26T21:23:40.231Z,8.85
2022-11-26T21:26:08.786Z,8.88
2022-11-26T21:28:36.147Z,8.50
2022-11-26T21:31:13.213Z,8.98
2022-11-26T21:33:39.938Z,8.85
2022-11-26T21:36:08.475Z,17.65
2022-11-26T21:38:35.677Z,11.85
2022-11-26T21:41:12.548Z,7.55
2022-11-26T21:43:43.731Z,9.25
2022-11-26T21:46:17.762Z,7.95
2022-11-26T21:48:47.152Z,8.07
2022-11-26T21:51:16.377Z,9.18
2022-11-26T21:53:43.469Z,10.30
2022-11-26T21:56:15.969Z,7.82
2022-11-26T21:58:43.450Z,7.97
2022-11-26T22:01:13.951Z,7.25
2022-11-26T22:03:42.965Z,9.15
2022-11-26T22:06:10.423Z,8.52
2022-11-26T22:08:37.730Z,7.43
2022-11-26T22:11:35.977Z,8.63
2022-11-26T22:14:03.949Z,7.30
2022-11-26T22:16:30.952Z,7.45
2022-11-26T22:18:59.307Z,8.88
2022-11-26T22:21:32.062Z,7.57
2022-11-26T22:24:00.440Z,7.60
2022-11-26T22:26:28.311Z,7.30
2022-11-26T22:28:57.856Z,10.57
2022-11-26T22:31:27.744Z,8.27
2022-11-26T22:34:18.783Z,7.03
2022-11-26T22:36:45.984Z,8.15
2022-11-26T22:42:15.068Z,7.93
2022-11-26T22:44:41.765Z,8.82
2022-11-26T22:47:08.566Z,9.40
2022-11-26T23:17:33.062Z,8.70
2022-11-26T23:19:59.805Z,7.47
2022-11-26T23:22:26.522Z,8.85
2022-11-26T23:24:53.239Z,9.38
2022-11-26T23:27:19.917Z,11.85
2022-11-26T23:29:46.530Z,9.68
2022-11-26T23:32:13.374Z,9.45
2022-11-26T23:34:40.049Z,9.38
2022-11-26T23:37:06.829Z,10.57
2022-11-26T23:39:33.454Z,13.82
2022-11-26T23:42:00.157Z,9.60
2022-11-26T23:44:26.862Z,10.75
2022-11-26T23:46:53.546Z,9.15
2022-11-26T23:49:20.310Z,12.95
2022-11-26T23:51:47.128Z,10.63
2022-11-26T23:54:13.881Z,10.32
2022-11-26T23:56:44.573Z,9.30
2022-11-26T23:59:12.364Z,8.43
